sensor_id;sensor_type;location;lat;lon;timestamp;P1;durP1;ratioP1;P2;durP2;ratioP2
9948;SDS011;5013;51.840;8.276;2022-12-18T00:01:47;88.17;;;47.03;;
9948;SDS011;5013;51.840;8.276;2022-12-18T00:04:31;91.33;;;47.50;;
9948;SDS011;5013;51.840;8.276;2022-12-18T00:06:57;91.53;;;46.97;;
9948;SDS011;5013;51.840;8.276;2022-12-18T00:09:23;88.47;;;46.37;;
9948;SDS011;5013;51.840;8.276;2022-12-18T00:11:48;82.53;;;43.97;;
9948;SDS011;5013;51.840;8.276;2022-12-18T00:14:14;84.47;;;44.73;;
9948;SDS011;5013;51.840;8.276;2022-12-18T00:16:40;82.27;;;45.00;;
9948;SDS011;5013;51.840;8.276;2022-12-18T00:19:08;85.10;;;43.90;;
9948;SDS011;5013;51.840;8.276;2022-12-18T00:21:35;76.33;;;41.87;;
9948;SDS011;5013;51.840;8.276;2022-12-18T00:24:00;75.70;;;41.53;;
9948;SDS011;5013;51.840;8.276;2022-12-18T00:26:30;85.60;;;43.67;;
9948;SDS011;5013;51.840;8.276;2022-12-18T00:29:01;79.17;;;41.57;;
9948;SDS011;5013;51.840;8.276;2022-12-18T00:31:32;82.60;;;43.20;;
9948;SDS011;5013;51.840;8.276;2022-12-18T00:33:58;79.80;;;41.75;;
9948;SDS011;5013;51.840;8.276;2022-12-18T00:36:28;81.13;;;44.53;;
9948;SDS011;5013;51.840;8.276;2022-12-18T00:38:57;77.13;;;42.87;;
9948;SDS011;5013;51.840;8.276;2022-12-18T00:41:24;84.53;;;42.23;;
9948;SDS011;5013;51.840;8.276;2022-12-18T00:44:10;77.43;;;41.60;;
9948;SDS011;5013;51.840;8.276;2022-12-18T00:46:37;85.60;;;44.42;;
9948;SDS011;5013;51.840;8.276;2022-12-18T00:49:03;80.83;;;43.87;;
9948;SDS011;5013;51.840;8.276;2022-12-18T00:51:29;85.67;;;44.53;;
9948;SDS011;5013;51.840;8.276;2022-12-18T00:53:55;88.37;;;43.23;;
9948;SDS011;5013;51.840;8.276;2022-12-18T00:56:21;79.17;;;40.77;;
9948;SDS011;5013;51.840;8.276;2022-12-18T00:58:47;77.60;;;41.03;;
9948;SDS011;5013;51.840;8.276;2022-12-18T01:01:12;77.00;;;42.17;;
9948;SDS011;5013;51.840;8.276;2022-12-18T01:03:38;81.50;;;44.40;;
9948;SDS011;5013;51.840;8.276;2022-12-18T01:06:08;86.80;;;44.07;;
9948;SDS011;5013;51.840;8.276;2022-12-18T01:08:36;80.30;;;43.63;;
9948;SDS011;5013;51.840;8.276;2022-12-18T01:11:16;76.90;;;43.00;;
9948;SDS011;5013;51.840;8.276;2022-12-18T01:13:43;80.97;;;43.53;;
9948;SDS011;5013;51.840;8.276;2022-12-18T01:16:11;81.10;;;44.20;;
9948;SDS011;5013;51.840;8.276;2022-12-18T01:18:40;89.93;;;45.10;;
9948;SDS011;5013;51.840;8.276;2022-12-18T01:21:07;86.80;;;44.67;;
9948;SDS011;5013;51.840;8.276;2022-12-18T01:23:37;79.47;;;43.30;;
9948;SDS011;5013;51.840;8.276;2022-12-18T01:26:12;82.60;;;41.70;;
9948;SDS011;5013;51.840;8.276;2022-12-18T01:28:39;79.30;;;41.22;;
9948;SDS011;5013;51.840;8.276;2022-12-18T01:31:38;70.67;;;39.63;;
9948;SDS011;5013;51.840;8.276;2022-12-18T01:34:01;72.93;;;40.53;;
9948;SDS011;5013;51.840;8.276;2022-12-18T01:36:30;75.60;;;40.73;;
9948;SDS011;5013;51.840;8.276;2022-12-18T01:38:59;79.43;;;41.57;;
9948;SDS011;5013;51.840;8.276;2022-12-18T01:41:29;75.60;;;39.47;;
9948;SDS011;5013;51.840;8.276;2022-12-18T01:49:53;78.00;;;40.33;;
9948;SDS011;5013;51.840;8.276;2022-12-18T01:52:20;65.87;;;37.93;;
9948;SDS011;5013;51.840;8.276;2022-12-18T01:54:47;75.13;;;39.20;;
9948;SDS011;5013;51.840;8.276;2022-12-18T01:57:14;79.57;;;41.97;;
9948;SDS011;5013;51.840;8.276;2022-12-18T01:59:41;80.60;;;42.30;;
9948;SDS011;5013;51.840;8.276;2022-12-18T02:02:10;84.00;;;42.67;;
9948;SDS011;5013;51.840;8.276;2022-12-18T02:04:36;76.18;;;41.63;;
9948;SDS011;5013;51.840;8.276;2022-12-18T02:09:50;72.70;;;39.40;;
9948;SDS011;5013;51.840;8.276;2022-12-18T02:15:44;85.47;;;41.73;;
9948;SDS011;5013;51.840;8.276;2022-12-18T02:18:31;77.53;;;38.93;;
9948;SDS011;5013;51.840;8.276;2022-12-18T02:26:40;73.43;;;38.40;;
9948;SDS011;5013;51.840;8.276;2022-12-18T02:29:29;70.30;;;37.00;;
9948;SDS011;5013;51.840;8.276;2022-12-18T02:32:03;70.37;;;35.57;;
9948;SDS011;5013;51.840;8.276;2022-12-18T02:34:34;72.17;;;37.90;;
9948;SDS011;5013;51.840;8.276;2022-12-18T02:37:04;76.03;;;37.90;;
9948;SDS011;5013;51.840;8.276;2022-12-18T02:39:36;83.20;;;42.80;;
9948;SDS011;5013;51.840;8.276;2022-12-18T02:42:06;80.93;;;39.38;;
9948;SDS011;5013;51.840;8.276;2022-12-18T02:44:35;81.67;;;42.13;;
9948;SDS011;5013;51.840;8.276;2022-12-18T02:47:09;73.18;;;40.80;;
9948;SDS011;5013;51.840;8.276;2022-12-18T03:00:23;71.03;;;38.30;;
9948;SDS011;5013;51.840;8.276;2022-12-18T03:06:02;68.50;;;36.20;;
9948;SDS011;5013;51.840;8.276;2022-12-18T03:08:31;67.25;;;37.08;;
9948;SDS011;5013;51.840;8.276;2022-12-18T03:11:05;73.18;;;36.67;;
9948;SDS011;5013;51.840;8.276;2022-12-18T03:16:03;66.45;;;36.20;;
9948;SDS011;5013;51.840;8.276;2022-12-18T03:18:35;61.20;;;33.00;;
9948;SDS011;5013;51.840;8.276;2022-12-18T03:21:06;67.20;;;34.23;;
9948;SDS011;5013;51.840;8.276;2022-12-18T03:23:39;66.13;;;34.88;;
9948;SDS011;5013;51.840;8.276;2022-12-18T03:26:10;65.28;;;35.20;;
9948;SDS011;5013;51.840;8.276;2022-12-18T03:28:40;62.77;;;33.57;;
9948;SDS011;5013;51.840;8.276;2022-12-18T03:31:11;58.80;;;34.53;;
9948;SDS011;5013;51.840;8.276;2022-12-18T03:33:57;64.95;;;34.00;;
9948;SDS011;5013;51.840;8.276;2022-12-18T03:36:26;67.18;;;32.95;;
9948;SDS011;5013;51.840;8.276;2022-12-18T03:38:52;58.80;;;31.87;;
9948;SDS011;5013;51.840;8.276;2022-12-18T03:41:19;57.53;;;31.33;;
9948;SDS011;5013;51.840;8.276;2022-12-18T03:43:55;61.13;;;31.87;;
9948;SDS011;5013;51.840;8.276;2022-12-18T03:46:38;59.20;;;30.87;;
9948;SDS011;5013;51.840;8.276;2022-12-18T03:52:09;64.70;;;33.42;;
9948;SDS011;5013;51.840;8.276;2022-12-18T03:54:45;54.60;;;31.67;;
9948;SDS011;5013;51.840;8.276;2022-12-18T03:57:19;64.90;;;32.80;;
9948;SDS011;5013;51.840;8.276;2022-12-18T03:59:49;58.40;;;32.53;;
9948;SDS011;5013;51.840;8.276;2022-12-18T04:02:21;61.10;;;31.63;;
9948;SDS011;5013;51.840;8.276;2022-12-18T04:04:48;54.40;;;31.17;;
9948;SDS011;5013;51.840;8.276;2022-12-18T04:07:22;60.87;;;31.17;;
9948;SDS011;5013;51.840;8.276;2022-12-18T04:09:49;63.72;;;30.75;;
9948;SDS011;5013;51.840;8.276;2022-12-18T04:12:18;57.25;;;31.83;;
9948;SDS011;5013;51.840;8.276;2022-12-18T04:14:44;60.93;;;30.83;;
9948;SDS011;5013;51.840;8.276;2022-12-18T04:17:09;63.47;;;32.13;;
9948;SDS011;5013;51.840;8.276;2022-12-18T04:19:35;57.27;;;32.00;;
9948;SDS011;5013;51.840;8.276;2022-12-18T04:22:01;59.63;;;30.77;;
9948;SDS011;5013;51.840;8.276;2022-12-18T04:24:26;56.00;;;30.73;;
9948;SDS011;5013;51.840;8.276;2022-12-18T04:26:52;51.70;;;30.20;;
9948;SDS011;5013;51.840;8.276;2022-12-18T04:29:17;58.07;;;28.90;;
9948;SDS011;5013;51.840;8.276;2022-12-18T04:31:43;52.50;;;29.63;;
9948;SDS011;5013;51.840;8.276;2022-12-18T04:34:08;55.43;;;29.40;;
9948;SDS011;5013;51.840;8.276;2022-12-18T04:36:34;49.87;;;27.90;;
9948;SDS011;5013;51.840;8.276;2022-12-18T04:39:00;53.07;;;28.80;;
9948;SDS011;5013;51.840;8.276;2022-12-18T04:41:25;55.17;;;30.80;;
9948;SDS011;5013;51.840;8.276;2022-12-18T04:43:51;61.23;;;31.20;;
9948;SDS011;5013;51.840;8.276;2022-12-18T04:46:16;58.93;;;31.70;;
9948;SDS011;5013;51.840;8.276;2022-12-18T04:48:44;52.23;;;29.47;;
9948;SDS011;5013;51.840;8.276;2022-12-18T04:51:10;53.08;;;29.13;;
9948;SDS011;5013;51.840;8.276;2022-12-18T04:53:36;55.10;;;27.73;;
9948;SDS011;5013;51.840;8.276;2022-12-18T04:56:03;50.73;;;28.97;;
9948;SDS011;5013;51.840;8.276;2022-12-18T04:58:33;48.75;;;28.25;;
9948;SDS011;5013;51.840;8.276;2022-12-18T05:00:59;52.70;;;28.03;;
9948;SDS011;5013;51.840;8.276;2022-12-18T05:03:25;53.33;;;27.83;;
9948;SDS011;5013;51.840;8.276;2022-12-18T05:05:50;50.10;;;27.90;;
9948;SDS011;5013;51.840;8.276;2022-12-18T05:08:16;51.87;;;28.53;;
9948;SDS011;5013;51.840;8.276;2022-12-18T05:10:48;45.97;;;27.03;;
9948;SDS011;5013;51.840;8.276;2022-12-18T05:13:14;51.97;;;26.52;;
9948;SDS011;5013;51.840;8.276;2022-12-18T05:15:39;45.30;;;27.67;;
9948;SDS011;5013;51.840;8.276;2022-12-18T05:18:06;47.05;;;26.17;;
9948;SDS011;5013;51.840;8.276;2022-12-18T05:20:32;50.80;;;27.83;;
9948;SDS011;5013;51.840;8.276;2022-12-18T05:22:58;44.67;;;26.73;;
9948;SDS011;5013;51.840;8.276;2022-12-18T05:25:24;47.37;;;25.60;;
9948;SDS011;5013;51.840;8.276;2022-12-18T05:27:49;51.65;;;27.77;;
9948;SDS011;5013;51.840;8.276;2022-12-18T05:30:15;48.70;;;27.30;;
9948;SDS011;5013;51.840;8.276;2022-12-18T05:32:41;50.95;;;27.27;;
9948;SDS011;5013;51.840;8.276;2022-12-18T05:35:08;47.30;;;26.02;;
9948;SDS011;5013;51.840;8.276;2022-12-18T05:37:35;46.73;;;26.40;;
9948;SDS011;5013;51.840;8.276;2022-12-18T05:40:02;52.00;;;27.43;;
9948;SDS011;5013;51.840;8.276;2022-12-18T05:42:28;47.43;;;26.17;;
9948;SDS011;5013;51.840;8.276;2022-12-18T05:44:54;42.73;;;26.10;;
9948;SDS011;5013;51.840;8.276;2022-12-18T05:47:19;48.00;;;26.80;;
9948;SDS011;5013;51.840;8.276;2022-12-18T05:49:45;42.27;;;24.67;;
9948;SDS011;5013;51.840;8.276;2022-12-18T05:52:10;51.77;;;26.70;;
9948;SDS011;5013;51.840;8.276;2022-12-18T05:54:36;46.17;;;25.47;;
9948;SDS011;5013;51.840;8.276;2022-12-18T05:57:02;43.57;;;25.33;;
9948;SDS011;5013;51.840;8.276;2022-12-18T05:59:27;43.33;;;23.90;;
9948;SDS011;5013;51.840;8.276;2022-12-18T06:01:53;42.83;;;24.57;;
9948;SDS011;5013;51.840;8.276;2022-12-18T06:04:18;40.87;;;23.47;;
9948;SDS011;5013;51.840;8.276;2022-12-18T06:06:44;41.53;;;24.00;;
9948;SDS011;5013;51.840;8.276;2022-12-18T06:09:10;49.83;;;27.00;;
9948;SDS011;5013;51.840;8.276;2022-12-18T06:11:36;42.42;;;23.73;;
9948;SDS011;5013;51.840;8.276;2022-12-18T06:14:03;45.83;;;24.50;;
9948;SDS011;5013;51.840;8.276;2022-12-18T06:16:30;47.42;;;25.08;;
9948;SDS011;5013;51.840;8.276;2022-12-18T06:18:57;47.40;;;24.40;;
9948;SDS011;5013;51.840;8.276;2022-12-18T06:24:48;47.88;;;24.45;;
9948;SDS011;5013;51.840;8.276;2022-12-18T06:27:14;44.10;;;25.50;;
9948;SDS011;5013;51.840;8.276;2022-12-18T06:29:40;42.13;;;24.52;;
9948;SDS011;5013;51.840;8.276;2022-12-18T06:35:28;38.78;;;22.55;;
9948;SDS011;5013;51.840;8.276;2022-12-18T06:37:53;39.10;;;22.43;;
9948;SDS011;5013;51.840;8.276;2022-12-18T06:43:41;44.20;;;23.60;;
9948;SDS011;5013;51.840;8.276;2022-12-18T06:46:07;37.40;;;21.50;;
9948;SDS011;5013;51.840;8.276;2022-12-18T06:48:34;38.20;;;21.55;;
9948;SDS011;5013;51.840;8.276;2022-12-18T06:54:22;31.92;;;19.13;;
9948;SDS011;5013;51.840;8.276;2022-12-18T06:56:47;35.37;;;20.50;;
9948;SDS011;5013;51.840;8.276;2022-12-18T06:59:13;41.33;;;20.73;;
9948;SDS011;5013;51.840;8.276;2022-12-18T07:01:39;38.50;;;23.07;;
9948;SDS011;5013;51.840;8.276;2022-12-18T07:04:05;34.50;;;20.63;;
9948;SDS011;5013;51.840;8.276;2022-12-18T07:06:31;36.40;;;19.20;;
9948;SDS011;5013;51.840;8.276;2022-12-18T07:08:56;34.30;;;19.60;;
9948;SDS011;5013;51.840;8.276;2022-12-18T07:14:44;39.25;;;19.40;;
9948;SDS011;5013;51.840;8.276;2022-12-18T07:17:10;38.07;;;21.43;;
9948;SDS011;5013;51.840;8.276;2022-12-18T07:19:35;34.73;;;19.90;;
9948;SDS011;5013;51.840;8.276;2022-12-18T07:22:01;34.87;;;19.40;;
9948;SDS011;5013;51.840;8.276;2022-12-18T07:24:26;31.23;;;18.93;;
9948;SDS011;5013;51.840;8.276;2022-12-18T07:26:53;33.50;;;18.40;;
9948;SDS011;5013;51.840;8.276;2022-12-18T07:29:18;31.53;;;17.27;;
9948;SDS011;5013;51.840;8.276;2022-12-18T07:31:44;30.37;;;17.07;;
9948;SDS011;5013;51.840;8.276;2022-12-18T07:34:13;33.70;;;18.93;;
9948;SDS011;5013;51.840;8.276;2022-12-18T07:36:40;30.52;;;17.98;;
9948;SDS011;5013;51.840;8.276;2022-12-18T07:39:06;31.00;;;17.33;;
9948;SDS011;5013;51.840;8.276;2022-12-18T07:41:32;35.27;;;19.47;;
9948;SDS011;5013;51.840;8.276;2022-12-18T07:43:57;28.63;;;16.00;;
9948;SDS011;5013;51.840;8.276;2022-12-18T07:46:23;28.70;;;16.50;;
9948;SDS011;5013;51.840;8.276;2022-12-18T07:48:48;32.00;;;16.40;;
9948;SDS011;5013;51.840;8.276;2022-12-18T07:51:14;32.07;;;18.20;;
9948;SDS011;5013;51.840;8.276;2022-12-18T07:53:40;27.70;;;17.63;;
9948;SDS011;5013;51.840;8.276;2022-12-18T07:56:07;30.67;;;16.90;;
9948;SDS011;5013;51.840;8.276;2022-12-18T07:58:34;28.00;;;16.33;;
9948;SDS011;5013;51.840;8.276;2022-12-18T08:01:04;29.63;;;17.50;;
9948;SDS011;5013;51.840;8.276;2022-12-18T08:03:31;28.05;;;16.92;;
9948;SDS011;5013;51.840;8.276;2022-12-18T08:06:03;37.87;;;18.77;;
9948;SDS011;5013;51.840;8.276;2022-12-18T08:08:31;32.38;;;18.40;;
9948;SDS011;5013;51.840;8.276;2022-12-18T08:10:58;29.50;;;17.17;;
9948;SDS011;5013;51.840;8.276;2022-12-18T08:13:24;31.23;;;16.77;;
9948;SDS011;5013;51.840;8.276;2022-12-18T08:16:00;31.50;;;16.43;;
9948;SDS011;5013;51.840;8.276;2022-12-18T08:18:28;27.63;;;16.57;;
9948;SDS011;5013;51.840;8.276;2022-12-18T08:20:54;31.00;;;17.67;;
9948;SDS011;5013;51.840;8.276;2022-12-18T08:23:20;29.63;;;16.83;;
9948;SDS011;5013;51.840;8.276;2022-12-18T08:25:46;27.53;;;16.70;;
9948;SDS011;5013;51.840;8.276;2022-12-18T08:28:12;30.50;;;17.67;;
9948;SDS011;5013;51.840;8.276;2022-12-18T08:30:38;28.93;;;15.50;;
9948;SDS011;5013;51.840;8.276;2022-12-18T08:36:01;31.60;;;17.87;;
9948;SDS011;5013;51.840;8.276;2022-12-18T08:38:27;24.23;;;15.37;;
9948;SDS011;5013;51.840;8.276;2022-12-18T08:41:03;23.10;;;13.90;;
9948;SDS011;5013;51.840;8.276;2022-12-18T08:43:31;21.53;;;13.77;;
9948;SDS011;5013;51.840;8.276;2022-12-18T08:46:15;22.83;;;13.63;;
9948;SDS011;5013;51.840;8.276;2022-12-18T08:48:41;20.60;;;13.30;;
9948;SDS011;5013;51.840;8.276;2022-12-18T08:51:07;23.10;;;13.30;;
9948;SDS011;5013;51.840;8.276;2022-12-18T08:53:34;18.43;;;12.47;;
9948;SDS011;5013;51.840;8.276;2022-12-18T08:56:01;19.73;;;12.33;;
9948;SDS011;5013;51.840;8.276;2022-12-18T08:58:27;20.03;;;11.63;;
9948;SDS011;5013;51.840;8.276;2022-12-18T09:04:14;18.90;;;12.03;;
9948;SDS011;5013;51.840;8.276;2022-12-18T09:06:40;15.73;;;11.50;;
9948;SDS011;5013;51.840;8.276;2022-12-18T09:09:06;18.30;;;12.10;;
9948;SDS011;5013;51.840;8.276;2022-12-18T09:14:54;19.77;;;13.03;;
9948;SDS011;5013;51.840;8.276;2022-12-18T09:17:19;21.00;;;12.57;;
9948;SDS011;5013;51.840;8.276;2022-12-18T09:23:07;17.57;;;11.00;;
9948;SDS011;5013;51.840;8.276;2022-12-18T09:28:56;16.03;;;11.80;;
9948;SDS011;5013;51.840;8.276;2022-12-18T09:31:22;18.97;;;11.97;;
9948;SDS011;5013;51.840;8.276;2022-12-18T09:33:48;19.87;;;12.23;;
9948;SDS011;5013;51.840;8.276;2022-12-18T09:36:15;18.13;;;12.40;;
9948;SDS011;5013;51.840;8.276;2022-12-18T09:38:42;19.27;;;12.23;;
9948;SDS011;5013;51.840;8.276;2022-12-18T09:50:37;22.73;;;13.63;;
9948;SDS011;5013;51.840;8.276;2022-12-18T09:53:06;21.93;;;14.53;;
9948;SDS011;5013;51.840;8.276;2022-12-18T09:55:40;23.43;;;14.73;;
9948;SDS011;5013;51.840;8.276;2022-12-18T10:00:42;19.73;;;13.47;;
9948;SDS011;5013;51.840;8.276;2022-12-18T10:03:12;19.93;;;14.10;;
9948;SDS011;5013;51.840;8.276;2022-12-18T10:06:43;19.00;;;14.47;;
9948;SDS011;5013;51.840;8.276;2022-12-18T10:13:45;25.90;;;14.30;;
9948;SDS011;5013;51.840;8.276;2022-12-18T10:16:44;23.57;;;14.27;;
9948;SDS011;5013;51.840;8.276;2022-12-18T10:19:47;23.73;;;14.47;;
9948;SDS011;5013;51.840;8.276;2022-12-18T10:28:13;18.80;;;11.57;;
9948;SDS011;5013;51.840;8.276;2022-12-18T10:30:41;17.60;;;12.40;;
9948;SDS011;5013;51.840;8.276;2022-12-18T10:33:12;17.47;;;12.50;;
9948;SDS011;5013;51.840;8.276;2022-12-18T10:35:45;19.17;;;12.27;;
9948;SDS011;5013;51.840;8.276;2022-12-18T10:41:00;16.23;;;11.77;;
9948;SDS011;5013;51.840;8.276;2022-12-18T10:43:27;16.20;;;12.23;;
9948;SDS011;5013;51.840;8.276;2022-12-18T10:46:27;14.57;;;11.37;;
9948;SDS011;5013;51.840;8.276;2022-12-18T10:48:53;14.90;;;11.43;;
9948;SDS011;5013;51.840;8.276;2022-12-18T10:51:24;22.47;;;12.83;;
9948;SDS011;5013;51.840;8.276;2022-12-18T10:56:29;16.17;;;11.27;;
9948;SDS011;5013;51.840;8.276;2022-12-18T10:58:58;18.50;;;11.40;;
9948;SDS011;5013;51.840;8.276;2022-12-18T11:01:31;16.03;;;11.00;;
9948;SDS011;5013;51.840;8.276;2022-12-18T11:04:13;16.37;;;11.57;;
9948;SDS011;5013;51.840;8.276;2022-12-18T11:09:34;19.37;;;11.37;;
9948;SDS011;5013;51.840;8.276;2022-12-18T11:12:17;20.00;;;11.77;;
9948;SDS011;5013;51.840;8.276;2022-12-18T11:14:51;14.00;;;11.07;;
9948;SDS011;5013;51.840;8.276;2022-12-18T11:20:53;16.37;;;11.33;;
9948;SDS011;5013;51.840;8.276;2022-12-18T11:23:24;15.93;;;11.33;;
9948;SDS011;5013;51.840;8.276;2022-12-18T11:25:52;13.77;;;11.20;;
9948;SDS011;5013;51.840;8.276;2022-12-18T11:31:25;16.23;;;10.70;;
9948;SDS011;5013;51.840;8.276;2022-12-18T11:36:41;14.77;;;10.90;;
9948;SDS011;5013;51.840;8.276;2022-12-18T11:39:15;13.30;;;10.60;;
9948;SDS011;5013;51.840;8.276;2022-12-18T11:47:28;14.20;;;9.80;;
9948;SDS011;5013;51.840;8.276;2022-12-18T11:50:03;15.50;;;10.77;;
9948;SDS011;5013;51.840;8.276;2022-12-18T11:52:39;14.47;;;10.20;;
9948;SDS011;5013;51.840;8.276;2022-12-18T12:00:54;13.97;;;9.80;;
9948;SDS011;5013;51.840;8.276;2022-12-18T12:03:47;11.53;;;9.70;;
9948;SDS011;5013;51.840;8.276;2022-12-18T12:24:39;12.43;;;9.10;;
9948;SDS011;5013;51.840;8.276;2022-12-18T12:27:20;12.67;;;8.87;;
9948;SDS011;5013;51.840;8.276;2022-12-18T12:32:38;12.73;;;9.33;;
9948;SDS011;5013;51.840;8.276;2022-12-18T12:38:25;12.83;;;9.27;;
9948;SDS011;5013;51.840;8.276;2022-12-18T12:40:52;13.40;;;10.20;;
9948;SDS011;5013;51.840;8.276;2022-12-18T12:49:29;11.80;;;8.50;;
9948;SDS011;5013;51.840;8.276;2022-12-18T12:52:06;13.33;;;8.17;;
9948;SDS011;5013;51.840;8.276;2022-12-18T12:54:36;9.47;;;8.47;;
9948;SDS011;5013;51.840;8.276;2022-12-18T12:59:57;12.00;;;8.37;;
9948;SDS011;5013;51.840;8.276;2022-12-18T13:07:51;11.70;;;8.80;;
9948;SDS011;5013;51.840;8.276;2022-12-18T13:10:33;10.10;;;8.30;;
9948;SDS011;5013;51.840;8.276;2022-12-18T13:20:35;11.37;;;8.40;;
9948;SDS011;5013;51.840;8.276;2022-12-18T13:31:14;9.60;;;7.57;;
9948;SDS011;5013;51.840;8.276;2022-12-18T13:37:39;13.20;;;7.90;;
9948;SDS011;5013;51.840;8.276;2022-12-18T13:43:00;15.53;;;7.27;;
9948;SDS011;5013;51.840;8.276;2022-12-18T13:45:39;7.80;;;6.77;;
9948;SDS011;5013;51.840;8.276;2022-12-18T13:48:17;9.43;;;6.97;;
9948;SDS011;5013;51.840;8.276;2022-12-18T13:53:38;11.77;;;6.90;;
9948;SDS011;5013;51.840;8.276;2022-12-18T13:56:08;23.13;;;7.43;;
9948;SDS011;5013;51.840;8.276;2022-12-18T13:58:34;11.13;;;6.77;;
9948;SDS011;5013;51.840;8.276;2022-12-18T14:00:59;11.47;;;6.67;;
9948;SDS011;5013;51.840;8.276;2022-12-18T14:03:27;11.00;;;7.13;;
9948;SDS011;5013;51.840;8.276;2022-12-18T14:06:03;11.23;;;6.83;;
9948;SDS011;5013;51.840;8.276;2022-12-18T14:08:34;9.67;;;6.77;;
9948;SDS011;5013;51.840;8.276;2022-12-18T14:11:03;11.50;;;6.83;;
9948;SDS011;5013;51.840;8.276;2022-12-18T14:13:32;10.57;;;7.20;;
9948;SDS011;5013;51.840;8.276;2022-12-18T14:16:02;13.97;;;7.10;;
9948;SDS011;5013;51.840;8.276;2022-12-18T14:18:33;11.63;;;6.87;;
9948;SDS011;5013;51.840;8.276;2022-12-18T14:24:21;8.80;;;6.90;;
9948;SDS011;5013;51.840;8.276;2022-12-18T14:26:50;7.43;;;6.10;;
9948;SDS011;5013;51.840;8.276;2022-12-18T14:29:34;14.03;;;7.60;;
9948;SDS011;5013;51.840;8.276;2022-12-18T14:34:49;13.00;;;7.07;;
9948;SDS011;5013;51.840;8.276;2022-12-18T14:37:25;12.80;;;7.47;;
9948;SDS011;5013;51.840;8.276;2022-12-18T14:39:53;11.50;;;6.60;;
9948;SDS011;5013;51.840;8.276;2022-12-18T14:42:24;13.90;;;7.23;;
9948;SDS011;5013;51.840;8.276;2022-12-18T14:45:17;10.63;;;7.00;;
9948;SDS011;5013;51.840;8.276;2022-12-18T14:51:21;13.73;;;8.63;;
9948;SDS011;5013;51.840;8.276;2022-12-18T14:53:55;14.80;;;9.83;;
9948;SDS011;5013;51.840;8.276;2022-12-18T15:02:27;10.90;;;7.80;;
9948;SDS011;5013;51.840;8.276;2022-12-18T15:05:01;8.70;;;6.97;;
9948;SDS011;5013;51.840;8.276;2022-12-18T15:10:50;12.57;;;8.13;;
9948;SDS011;5013;51.840;8.276;2022-12-18T15:13:23;12.00;;;7.70;;
9948;SDS011;5013;51.840;8.276;2022-12-18T15:19:11;12.47;;;7.53;;
9948;SDS011;5013;51.840;8.276;2022-12-18T15:21:37;10.10;;;7.27;;
9948;SDS011;5013;51.840;8.276;2022-12-18T15:24:13;16.03;;;7.80;;
9948;SDS011;5013;51.840;8.276;2022-12-18T15:26:43;11.97;;;8.17;;
9948;SDS011;5013;51.840;8.276;2022-12-18T15:29:17;10.87;;;7.17;;
9948;SDS011;5013;51.840;8.276;2022-12-18T15:31:45;11.77;;;7.77;;
9948;SDS011;5013;51.840;8.276;2022-12-18T15:34:31;11.70;;;8.63;;
9948;SDS011;5013;51.840;8.276;2022-12-18T15:36:59;12.13;;;9.07;;
9948;SDS011;5013;51.840;8.276;2022-12-18T15:39:24;14.67;;;8.47;;
9948;SDS011;5013;51.840;8.276;2022-12-18T15:41:50;12.43;;;8.67;;
9948;SDS011;5013;51.840;8.276;2022-12-18T15:47:56;15.50;;;8.87;;
9948;SDS011;5013;51.840;8.276;2022-12-18T15:50:22;15.90;;;9.50;;
9948;SDS011;5013;51.840;8.276;2022-12-18T15:52:49;14.50;;;10.17;;
9948;SDS011;5013;51.840;8.276;2022-12-18T15:55:17;15.90;;;10.73;;
9948;SDS011;5013;51.840;8.276;2022-12-18T15:58:06;16.87;;;10.13;;
9948;SDS011;5013;51.840;8.276;2022-12-18T16:00:33;13.37;;;9.33;;
9948;SDS011;5013;51.840;8.276;2022-12-18T16:03:01;12.50;;;9.20;;
9948;SDS011;5013;51.840;8.276;2022-12-18T16:05:27;17.20;;;9.73;;
9948;SDS011;5013;51.840;8.276;2022-12-18T16:07:54;15.33;;;9.63;;
9948;SDS011;5013;51.840;8.276;2022-12-18T16:10:24;15.57;;;9.67;;
9948;SDS011;5013;51.840;8.276;2022-12-18T16:12:51;13.90;;;9.90;;
9948;SDS011;5013;51.840;8.276;2022-12-18T16:15:17;14.17;;;9.97;;
9948;SDS011;5013;51.840;8.276;2022-12-18T16:17:43;16.60;;;10.30;;
9948;SDS011;5013;51.840;8.276;2022-12-18T16:20:15;14.93;;;10.80;;
9948;SDS011;5013;51.840;8.276;2022-12-18T16:22:43;15.97;;;10.53;;
9948;SDS011;5013;51.840;8.276;2022-12-18T16:25:20;15.80;;;10.83;;
9948;SDS011;5013;51.840;8.276;2022-12-18T16:27:50;13.77;;;9.73;;
9948;SDS011;5013;51.840;8.276;2022-12-18T16:33:39;18.50;;;11.70;;
9948;SDS011;5013;51.840;8.276;2022-12-18T16:36:04;17.30;;;11.33;;
9948;SDS011;5013;51.840;8.276;2022-12-18T16:38:30;18.37;;;12.30;;
9948;SDS011;5013;51.840;8.276;2022-12-18T16:40:56;18.70;;;12.33;;
9948;SDS011;5013;51.840;8.276;2022-12-18T16:43:40;20.27;;;12.27;;
9948;SDS011;5013;51.840;8.276;2022-12-18T16:46:05;22.03;;;13.07;;
9948;SDS011;5013;51.840;8.276;2022-12-18T16:48:31;19.67;;;12.77;;
9948;SDS011;5013;51.840;8.276;2022-12-18T16:54:20;19.97;;;12.00;;
9948;SDS011;5013;51.840;8.276;2022-12-18T16:56:46;21.90;;;12.57;;
9948;SDS011;5013;51.840;8.276;2022-12-18T17:02:37;20.80;;;13.17;;
9948;SDS011;5013;51.840;8.276;2022-12-18T17:05:03;17.93;;;13.10;;
9948;SDS011;5013;51.840;8.276;2022-12-18T17:07:29;19.90;;;13.37;;
9948;SDS011;5013;51.840;8.276;2022-12-18T17:13:16;21.33;;;14.17;;
9948;SDS011;5013;51.840;8.276;2022-12-18T17:15:42;23.20;;;14.70;;
9948;SDS011;5013;51.840;8.276;2022-12-18T17:18:07;26.83;;;15.30;;
9948;SDS011;5013;51.840;8.276;2022-12-18T17:20:33;32.03;;;15.53;;
9948;SDS011;5013;51.840;8.276;2022-12-18T17:22:58;21.77;;;14.90;;
9948;SDS011;5013;51.840;8.276;2022-12-18T17:25:24;25.33;;;15.20;;
9948;SDS011;5013;51.840;8.276;2022-12-18T17:27:50;24.00;;;16.77;;
9948;SDS011;5013;51.840;8.276;2022-12-18T17:33:38;26.03;;;16.23;;
9948;SDS011;5013;51.840;8.276;2022-12-18T17:36:04;29.37;;;16.87;;
9948;SDS011;5013;51.840;8.276;2022-12-18T17:38:29;26.27;;;17.20;;
9948;SDS011;5013;51.840;8.276;2022-12-18T17:40:59;26.47;;;17.37;;
9948;SDS011;5013;51.840;8.276;2022-12-18T17:43:29;26.33;;;17.37;;
9948;SDS011;5013;51.840;8.276;2022-12-18T17:49:16;30.57;;;18.17;;
9948;SDS011;5013;51.840;8.276;2022-12-18T17:51:42;31.27;;;18.67;;
9948;SDS011;5013;51.840;8.276;2022-12-18T17:54:08;27.77;;;18.33;;
9948;SDS011;5013;51.840;8.276;2022-12-18T17:56:34;29.43;;;18.53;;
9948;SDS011;5013;51.840;8.276;2022-12-18T17:59:00;30.83;;;19.47;;
9948;SDS011;5013;51.840;8.276;2022-12-18T18:01:26;36.43;;;21.07;;
9948;SDS011;5013;51.840;8.276;2022-12-18T18:03:51;31.60;;;19.07;;
9948;SDS011;5013;51.840;8.276;2022-12-18T18:06:21;32.70;;;21.47;;
9948;SDS011;5013;51.840;8.276;2022-12-18T18:08:47;39.77;;;21.77;;
9948;SDS011;5013;51.840;8.276;2022-12-18T18:11:15;32.53;;;20.40;;
9948;SDS011;5013;51.840;8.276;2022-12-18T18:14:01;31.37;;;20.13;;
9948;SDS011;5013;51.840;8.276;2022-12-18T18:19:00;32.77;;;19.87;;
9948;SDS011;5013;51.840;8.276;2022-12-18T18:21:27;36.67;;;21.13;;
9948;SDS011;5013;51.840;8.276;2022-12-18T18:23:52;32.43;;;21.93;;
9948;SDS011;5013;51.840;8.276;2022-12-18T18:26:18;35.63;;;20.90;;
9948;SDS011;5013;51.840;8.276;2022-12-18T18:28:45;39.83;;;23.00;;
9948;SDS011;5013;51.840;8.276;2022-12-18T18:31:10;34.10;;;22.07;;
9948;SDS011;5013;51.840;8.276;2022-12-18T18:33:36;41.10;;;24.13;;
9948;SDS011;5013;51.840;8.276;2022-12-18T18:39:24;36.17;;;22.23;;
9948;SDS011;5013;51.840;8.276;2022-12-18T18:41:50;35.77;;;22.43;;
9948;SDS011;5013;51.840;8.276;2022-12-18T18:44:17;39.70;;;24.67;;
9948;SDS011;5013;51.840;8.276;2022-12-18T18:46:44;37.87;;;23.23;;
9948;SDS011;5013;51.840;8.276;2022-12-18T18:49:10;37.70;;;22.70;;
9948;SDS011;5013;51.840;8.276;2022-12-18T18:51:38;39.23;;;23.37;;
9948;SDS011;5013;51.840;8.276;2022-12-18T18:54:06;33.93;;;21.90;;
9948;SDS011;5013;51.840;8.276;2022-12-18T18:56:33;43.07;;;24.20;;
9948;SDS011;5013;51.840;8.276;2022-12-18T18:58:58;40.33;;;23.27;;
9948;SDS011;5013;51.840;8.276;2022-12-18T19:01:25;42.83;;;24.63;;